sensor_id;sensor_type;location;lat;lon;timestamp;temperature;humidity
15257;DHT22;7731;50.720;6.912;2022-10-17T00:00:54;16.60;99.90
15257;DHT22;7731;50.720;6.912;2022-10-17T00:03:25;16.60;99.90
15257;DHT22;7731;50.720;6.912;2022-10-17T00:05:57;16.60;99.90
15257;DHT22;7731;50.720;6.912;2022-10-17T00:08:30;16.60;99.90
15257;DHT22;7731;50.720;6.912;2022-10-17T00:11:02;16.60;99.90
15257;DHT22;7731;50.720;6.912;2022-10-17T00:13:37;16.60;99.90
15257;DHT22;7731;50.720;6.912;2022-10-17T00:16:08;16.50;99.90
15257;DHT22;7731;50.720;6.912;2022-10-17T00:18:39;16.50;99.90
15257;DHT22;7731;50.720;6.912;2022-10-17T00:21:15;16.50;99.90
15257;DHT22;7731;50.720;6.912;2022-10-17T00:23:48;16.50;99.90
15257;DHT22;7731;50.720;6.912;2022-10-17T00:26:25;16.60;99.90
15257;DHT22;7731;50.720;6.912;2022-10-17T00:28:56;16.60;99.90
15257;DHT22;7731;50.720;6.912;2022-10-17T00:31:27;16.60;99.90
15257;DHT22;7731;50.720;6.912;2022-10-17T00:33:57;16.60;99.90
15257;DHT22;7731;50.720;6.912;2022-10-17T00:36:28;16.60;99.90
15257;DHT22;7731;50.720;6.912;2022-10-17T00:39:03;16.60;99.90
15257;DHT22;7731;50.720;6.912;2022-10-17T00:41:33;16.70;99.90
15257;DHT22;7731;50.720;6.912;2022-10-17T00:44:05;16.70;99.90
15257;DHT22;7731;50.720;6.912;2022-10-17T00:46:38;16.80;99.90
15257;DHT22;7731;50.720;6.912;2022-10-17T00:49:10;16.80;99.90
15257;DHT22;7731;50.720;6.912;2022-10-17T00:51:49;16.80;99.90
15257;DHT22;7731;50.720;6.912;2022-10-17T00:54:29;16.80;99.90
15257;DHT22;7731;50.720;6.912;2022-10-17T00:57:03;16.70;99.90
15257;DHT22;7731;50.720;6.912;2022-10-17T00:59:35;16.70;99.90
15257;DHT22;7731;50.720;6.912;2022-10-17T01:02:12;16.70;99.90
15257;DHT22;7731;50.720;6.912;2022-10-17T01:04:45;16.70;99.90
15257;DHT22;7731;50.720;6.912;2022-10-17T01:07:19;16.70;99.90
15257;DHT22;7731;50.720;6.912;2022-10-17T01:09:52;16.70;99.90
15257;DHT22;7731;50.720;6.912;2022-10-17T01:12:31;16.80;99.90
15257;DHT22;7731;50.720;6.912;2022-10-17T01:15:13;16.70;99.90
15257;DHT22;7731;50.720;6.912;2022-10-17T01:18:07;16.70;99.90
15257;DHT22;7731;50.720;6.912;2022-10-17T01:21:05;16.70;99.90
15257;DHT22;7731;50.720;6.912;2022-10-17T01:30:58;16.70;99.90
15257;DHT22;7731;50.720;6.912;2022-10-17T01:33:47;16.80;99.90
15257;DHT22;7731;50.720;6.912;2022-10-17T01:36:36;16.70;99.90
15257;DHT22;7731;50.720;6.912;2022-10-17T01:39:22;16.70;99.90
15257;DHT22;7731;50.720;6.912;2022-10-17T01:42:22;16.70;99.90
15257;DHT22;7731;50.720;6.912;2022-10-17T01:45:01;16.60;99.90
15257;DHT22;7731;50.720;6.912;2022-10-17T01:47:42;16.60;99.90
15257;DHT22;7731;50.720;6.912;2022-10-17T01:50:18;16.70;99.90
15257;DHT22;7731;50.720;6.912;2022-10-17T01:52:58;16.70;99.90
15257;DHT22;7731;50.720;6.912;2022-10-17T01:55:36;16.70;99.90
15257;DHT22;7731;50.720;6.912;2022-10-17T01:58:11;16.70;99.90
15257;DHT22;7731;50.720;6.912;2022-10-17T02:00:44;16.70;99.90
15257;DHT22;7731;50.720;6.912;2022-10-17T02:03:23;16.70;99.90
15257;DHT22;7731;50.720;6.912;2022-10-17T02:05:58;16.70;99.90
15257;DHT22;7731;50.720;6.912;2022-10-17T02:08:40;16.70;99.90
15257;DHT22;7731;50.720;6.912;2022-10-17T02:11:15;16.70;99.90
15257;DHT22;7731;50.720;6.912;2022-10-17T02:14:12;16.70;99.90
15257;DHT22;7731;50.720;6.912;2022-10-17T02:16:54;16.70;99.90
15257;DHT22;7731;50.720;6.912;2022-10-17T02:19:45;16.70;99.90
15257;DHT22;7731;50.720;6.912;2022-10-17T02:22:29;16.60;99.90
15257;DHT22;7731;50.720;6.912;2022-10-17T02:25:11;16.70;99.90
15257;DHT22;7731;50.720;6.912;2022-10-17T02:27:51;16.60;99.90
15257;DHT22;7731;50.720;6.912;2022-10-17T02:30:30;16.60;99.90
15257;DHT22;7731;50.720;6.912;2022-10-17T02:33:10;16.60;99.90
15257;DHT22;7731;50.720;6.912;2022-10-17T02:35:52;16.70;99.90
15257;DHT22;7731;50.720;6.912;2022-10-17T02:38:30;16.70;99.90
15257;DHT22;7731;50.720;6.912;2022-10-17T02:41:02;16.70;99.90
15257;DHT22;7731;50.720;6.912;2022-10-17T02:43:39;16.70;99.90
15257;DHT22;7731;50.720;6.912;2022-10-17T02:46:11;16.60;99.90
15257;DHT22;7731;50.720;6.912;2022-10-17T02:48:48;16.60;99.90
15257;DHT22;7731;50.720;6.912;2022-10-17T02:51:28;16.60;99.90
15257;DHT22;7731;50.720;6.912;2022-10-17T02:54:09;16.60;99.90
15257;DHT22;7731;50.720;6.912;2022-10-17T02:56:49;16.60;99.90
15257;DHT22;7731;50.720;6.912;2022-10-17T02:59:24;16.70;99.90
15257;DHT22;7731;50.720;6.912;2022-10-17T03:01:57;16.90;99.90
15257;DHT22;7731;50.720;6.912;2022-10-17T03:04:31;16.90;99.90
15257;DHT22;7731;50.720;6.912;2022-10-17T03:07:05;16.90;99.90
15257;DHT22;7731;50.720;6.912;2022-10-17T03:09:35;16.90;99.90
15257;DHT22;7731;50.720;6.912;2022-10-17T03:12:08;16.90;99.90
15257;DHT22;7731;50.720;6.912;2022-10-17T03:14:40;17.00;99.90
15257;DHT22;7731;50.720;6.912;2022-10-17T03:17:16;17.00;99.90
15257;DHT22;7731;50.720;6.912;2022-10-17T03:19:46;17.00;99.90
15257;DHT22;7731;50.720;6.912;2022-10-17T03:22:18;16.90;99.90
15257;DHT22;7731;50.720;6.912;2022-10-17T03:24:49;17.00;99.90
15257;DHT22;7731;50.720;6.912;2022-10-17T03:27:19;17.00;99.90
15257;DHT22;7731;50.720;6.912;2022-10-17T03:29:49;17.00;99.90
15257;DHT22;7731;50.720;6.912;2022-10-17T03:32:22;16.90;99.90
15257;DHT22;7731;50.720;6.912;2022-10-17T03:34:52;16.80;99.90
15257;DHT22;7731;50.720;6.912;2022-10-17T03:37:24;16.80;99.90
15257;DHT22;7731;50.720;6.912;2022-10-17T03:39:58;16.80;99.90
15257;DHT22;7731;50.720;6.912;2022-10-17T03:42:29;16.70;99.90
15257;DHT22;7731;50.720;6.912;2022-10-17T03:45:03;16.80;99.90
15257;DHT22;7731;50.720;6.912;2022-10-17T03:47:34;16.80;99.90
15257;DHT22;7731;50.720;6.912;2022-10-17T03:50:05;16.80;99.90
15257;DHT22;7731;50.720;6.912;2022-10-17T03:52:38;16.70;99.90
15257;DHT22;7731;50.720;6.912;2022-10-17T03:55:08;16.60;99.90
15257;DHT22;7731;50.720;6.912;2022-10-17T03:57:39;16.60;99.90
15257;DHT22;7731;50.720;6.912;2022-10-17T04:00:12;16.50;99.90
15257;DHT22;7731;50.720;6.912;2022-10-17T04:02:45;16.50;99.90
15257;DHT22;7731;50.720;6.912;2022-10-17T04:05:15;16.40;99.90
15257;DHT22;7731;50.720;6.912;2022-10-17T04:07:48;16.30;99.90
15257;DHT22;7731;50.720;6.912;2022-10-17T04:10:18;16.30;99.90
15257;DHT22;7731;50.720;6.912;2022-10-17T04:12:48;16.30;99.90
15257;DHT22;7731;50.720;6.912;2022-10-17T04:15:18;16.30;99.90
15257;DHT22;7731;50.720;6.912;2022-10-17T04:17:48;16.40;99.90
15257;DHT22;7731;50.720;6.912;2022-10-17T04:20:19;16.30;99.90
15257;DHT22;7731;50.720;6.912;2022-10-17T04:22:51;16.40;99.90
15257;DHT22;7731;50.720;6.912;2022-10-17T04:25:22;16.40;99.90
15257;DHT22;7731;50.720;6.912;2022-10-17T04:27:52;16.40;99.90
15257;DHT22;7731;50.720;6.912;2022-10-17T04:30:22;16.40;99.90
15257;DHT22;7731;50.720;6.912;2022-10-17T04:32:52;16.40;99.90
15257;DHT22;7731;50.720;6.912;2022-10-17T04:35:24;16.40;99.90
15257;DHT22;7731;50.720;6.912;2022-10-17T04:37:57;16.30;99.90
15257;DHT22;7731;50.720;6.912;2022-10-17T04:40:27;16.20;99.90
15257;DHT22;7731;50.720;6.912;2022-10-17T04:43:03;16.10;99.90
15257;DHT22;7731;50.720;6.912;2022-10-17T04:45:33;16.10;99.90
15257;DHT22;7731;50.720;6.912;2022-10-17T04:48:09;16.10;99.90
15257;DHT22;7731;50.720;6.912;2022-10-17T04:50:39;16.00;99.90
15257;DHT22;7731;50.720;6.912;2022-10-17T04:53:12;15.90;99.90
15257;DHT22;7731;50.720;6.912;2022-10-17T04:55:44;15.80;99.90
15257;DHT22;7731;50.720;6.912;2022-10-17T04:58:21;15.80;99.90
15257;DHT22;7731;50.720;6.912;2022-10-17T05:00:51;15.80;99.90
15257;DHT22;7731;50.720;6.912;2022-10-17T05:03:21;15.80;99.90
15257;DHT22;7731;50.720;6.912;2022-10-17T05:05:51;15.90;99.90
15257;DHT22;7731;50.720;6.912;2022-10-17T05:08:24;15.90;99.90
15257;DHT22;7731;50.720;6.912;2022-10-17T05:10:54;15.90;99.90
15257;DHT22;7731;50.720;6.912;2022-10-17T05:13:26;15.90;99.90
15257;DHT22;7731;50.720;6.912;2022-10-17T05:16:00;15.90;99.90
15257;DHT22;7731;50.720;6.912;2022-10-17T05:18:30;15.90;99.90
15257;DHT22;7731;50.720;6.912;2022-10-17T05:21:02;16.00;99.90
15257;DHT22;7731;50.720;6.912;2022-10-17T05:23:35;16.10;99.90
15257;DHT22;7731;50.720;6.912;2022-10-17T05:26:08;16.00;99.90
15257;DHT22;7731;50.720;6.912;2022-10-17T05:28:39;16.10;99.90
15257;DHT22;7731;50.720;6.912;2022-10-17T05:31:12;16.10;99.90
15257;DHT22;7731;50.720;6.912;2022-10-17T05:33:45;16.10;99.90
15257;DHT22;7731;50.720;6.912;2022-10-17T05:36:16;16.20;99.90
15257;DHT22;7731;50.720;6.912;2022-10-17T05:38:50;16.20;99.90
15257;DHT22;7731;50.720;6.912;2022-10-17T05:41:23;16.10;99.90
15257;DHT22;7731;50.720;6.912;2022-10-17T05:43:53;16.10;99.90
15257;DHT22;7731;50.720;6.912;2022-10-17T05:46:27;16.00;99.90
15257;DHT22;7731;50.720;6.912;2022-10-17T05:49:00;16.00;99.90
15257;DHT22;7731;50.720;6.912;2022-10-17T05:51:45;16.00;99.90
15257;DHT22;7731;50.720;6.912;2022-10-17T05:54:17;16.00;99.90
15257;DHT22;7731;50.720;6.912;2022-10-17T05:56:50;16.10;99.90
15257;DHT22;7731;50.720;6.912;2022-10-17T05:59:21;16.20;99.90
15257;DHT22;7731;50.720;6.912;2022-10-17T06:01:58;16.20;99.90
15257;DHT22;7731;50.720;6.912;2022-10-17T06:04:29;16.20;99.90
15257;DHT22;7731;50.720;6.912;2022-10-17T06:06:59;16.20;99.90
15257;DHT22;7731;50.720;6.912;2022-10-17T06:09:37;16.10;99.90
15257;DHT22;7731;50.720;6.912;2022-10-17T06:12:09;16.10;99.90
15257;DHT22;7731;50.720;6.912;2022-10-17T06:14:40;16.10;99.90
15257;DHT22;7731;50.720;6.912;2022-10-17T06:17:10;16.20;99.90
15257;DHT22;7731;50.720;6.912;2022-10-17T06:19:42;16.20;99.90
15257;DHT22;7731;50.720;6.912;2022-10-17T06:22:15;16.30;99.90
15257;DHT22;7731;50.720;6.912;2022-10-17T06:24:52;16.40;99.90
15257;DHT22;7731;50.720;6.912;2022-10-17T06:27:25;16.40;99.90
15257;DHT22;7731;50.720;6.912;2022-10-17T06:29:55;16.50;99.90
15257;DHT22;7731;50.720;6.912;2022-10-17T06:32:28;16.60;99.90
15257;DHT22;7731;50.720;6.912;2022-10-17T06:34:59;16.60;99.90
15257;DHT22;7731;50.720;6.912;2022-10-17T06:37:36;16.60;99.90
15257;DHT22;7731;50.720;6.912;2022-10-17T06:40:11;16.70;99.90
15257;DHT22;7731;50.720;6.912;2022-10-17T06:42:43;16.70;99.90
15257;DHT22;7731;50.720;6.912;2022-10-17T06:45:18;16.70;99.90
15257;DHT22;7731;50.720;6.912;2022-10-17T06:48:01;16.80;99.90
15257;DHT22;7731;50.720;6.912;2022-10-17T06:50:31;17.00;99.90
15257;DHT22;7731;50.720;6.912;2022-10-17T06:53:01;17.10;99.90
15257;DHT22;7731;50.720;6.912;2022-10-17T06:55:34;17.20;99.90
15257;DHT22;7731;50.720;6.912;2022-10-17T06:58:04;17.30;99.90
15257;DHT22;7731;50.720;6.912;2022-10-17T07:00:37;17.40;99.90
15257;DHT22;7731;50.720;6.912;2022-10-17T07:03:10;17.60;99.90
15257;DHT22;7731;50.720;6.912;2022-10-17T07:05:50;17.70;99.90
15257;DHT22;7731;50.720;6.912;2022-10-17T07:08:21;18.00;99.90
15257;DHT22;7731;50.720;6.912;2022-10-17T07:10:57;18.20;99.90
15257;DHT22;7731;50.720;6.912;2022-10-17T07:13:27;18.30;99.90
15257;DHT22;7731;50.720;6.912;2022-10-17T07:16:05;18.40;99.90
15257;DHT22;7731;50.720;6.912;2022-10-17T07:18:35;18.60;99.90
15257;DHT22;7731;50.720;6.912;2022-10-17T07:21:06;18.80;99.90
15257;DHT22;7731;50.720;6.912;2022-10-17T07:23:36;18.90;99.90
15257;DHT22;7731;50.720;6.912;2022-10-17T07:26:11;19.10;99.90
15257;DHT22;7731;50.720;6.912;2022-10-17T07:28:45;19.20;99.90
15257;DHT22;7731;50.720;6.912;2022-10-17T07:31:18;19.40;99.90
15257;DHT22;7731;50.720;6.912;2022-10-17T07:33:49;19.70;99.90
15257;DHT22;7731;50.720;6.912;2022-10-17T07:36:19;19.80;99.90
15257;DHT22;7731;50.720;6.912;2022-10-17T07:38:52;20.00;99.90
15257;DHT22;7731;50.720;6.912;2022-10-17T07:41:30;20.20;99.90
15257;DHT22;7731;50.720;6.912;2022-10-17T07:44:03;20.70;99.90
15257;DHT22;7731;50.720;6.912;2022-10-17T07:46:34;21.50;99.90
15257;DHT22;7731;50.720;6.912;2022-10-17T07:49:04;22.30;99.90
15257;DHT22;7731;50.720;6.912;2022-10-17T07:51:36;22.60;97.10
15257;DHT22;7731;50.720;6.912;2022-10-17T07:54:06;22.80;99.90
15257;DHT22;7731;50.720;6.912;2022-10-17T07:56:39;23.10;90.90
15257;DHT22;7731;50.720;6.912;2022-10-17T07:59:09;23.20;90.60
15257;DHT22;7731;50.720;6.912;2022-10-17T08:01:42;23.10;90.00
15257;DHT22;7731;50.720;6.912;2022-10-17T08:04:12;23.40;75.10
15257;DHT22;7731;50.720;6.912;2022-10-17T08:06:45;23.70;65.70
15257;DHT22;7731;50.720;6.912;2022-10-17T08:09:25;24.10;43.20
15257;DHT22;7731;50.720;6.912;2022-10-17T08:11:57;24.70;16.90
15257;DHT22;7731;50.720;6.912;2022-10-17T08:14:30;24.90;12.70
15257;DHT22;7731;50.720;6.912;2022-10-17T08:17:01;24.30;30.40
15257;DHT22;7731;50.720;6.912;2022-10-17T08:19:31;23.90;43.50
15257;DHT22;7731;50.720;6.912;2022-10-17T08:22:01;23.40;74.30
15257;DHT22;7731;50.720;6.912;2022-10-17T08:24:34;23.00;96.00
15257;DHT22;7731;50.720;6.912;2022-10-17T08:27:14;22.80;99.90
15257;DHT22;7731;50.720;6.912;2022-10-17T08:29:50;23.10;99.90
15257;DHT22;7731;50.720;6.912;2022-10-17T08:32:22;22.80;99.90
15257;DHT22;7731;50.720;6.912;2022-10-17T08:34:57;22.50;99.90
15257;DHT22;7731;50.720;6.912;2022-10-17T08:37:28;22.20;99.90
15257;DHT22;7731;50.720;6.912;2022-10-17T08:40:02;22.00;99.90
15257;DHT22;7731;50.720;6.912;2022-10-17T08:42:47;22.00;99.90
15257;DHT22;7731;50.720;6.912;2022-10-17T08:45:28;21.90;99.90
15257;DHT22;7731;50.720;6.912;2022-10-17T08:48:07;21.30;99.90
15257;DHT22;7731;50.720;6.912;2022-10-17T08:50:45;21.00;99.90
15257;DHT22;7731;50.720;6.912;2022-10-17T08:53:35;20.60;99.90
15257;DHT22;7731;50.720;6.912;2022-10-17T08:56:15;20.40;99.90
15257;DHT22;7731;50.720;6.912;2022-10-17T08:59:17;20.30;99.90
15257;DHT22;7731;50.720;6.912;2022-10-17T09:01:57;20.20;99.90
15257;DHT22;7731;50.720;6.912;2022-10-17T09:05:01;20.50;99.90
15257;DHT22;7731;50.720;6.912;2022-10-17T09:08:03;20.80;99.90
15257;DHT22;7731;50.720;6.912;2022-10-17T09:10:51;21.20;99.90
15257;DHT22;7731;50.720;6.912;2022-10-17T09:13:55;21.40;99.90
15257;DHT22;7731;50.720;6.912;2022-10-17T09:16:49;22.00;99.90
15257;DHT22;7731;50.720;6.912;2022-10-17T09:19:34;22.80;99.90
15257;DHT22;7731;50.720;6.912;2022-10-17T09:22:11;23.20;98.50
15257;DHT22;7731;50.720;6.912;2022-10-17T09:24:51;23.00;99.90
15257;DHT22;7731;50.720;6.912;2022-10-17T09:27:34;22.80;99.90
15257;DHT22;7731;50.720;6.912;2022-10-17T09:30:28;22.80;99.90
15257;DHT22;7731;50.720;6.912;2022-10-17T09:33:16;22.90;99.90
15257;DHT22;7731;50.720;6.912;2022-10-17T09:36:03;22.90;99.90
15257;DHT22;7731;50.720;6.912;2022-10-17T09:38:42;22.70;99.90
15257;DHT22;7731;50.720;6.912;2022-10-17T09:41:20;22.90;98.60
15257;DHT22;7731;50.720;6.912;2022-10-17T09:44:15;22.70;99.90
15257;DHT22;7731;50.720;6.912;2022-10-17T09:47:09;22.60;99.90
15257;DHT22;7731;50.720;6.912;2022-10-17T09:50:00;22.50;99.90
15257;DHT22;7731;50.720;6.912;2022-10-17T09:52:34;22.30;99.90
15257;DHT22;7731;50.720;6.912;2022-10-17T09:55:18;22.30;99.90
15257;DHT22;7731;50.720;6.912;2022-10-17T09:57:59;22.60;99.90
15257;DHT22;7731;50.720;6.912;2022-10-17T10:00:32;23.10;99.90
15257;DHT22;7731;50.720;6.912;2022-10-17T10:03:17;23.50;93.00
15257;DHT22;7731;50.720;6.912;2022-10-17T10:06:03;23.90;78.70
15257;DHT22;7731;50.720;6.912;2022-10-17T10:08:48;24.20;61.50
15257;DHT22;7731;50.720;6.912;2022-10-17T10:11:22;24.30;57.50
15257;DHT22;7731;50.720;6.912;2022-10-17T10:14:11;24.60;51.20
15257;DHT22;7731;50.720;6.912;2022-10-17T10:16:51;25.20;29.90
15257;DHT22;7731;50.720;6.912;2022-10-17T10:19:28;25.40;23.80
15257;DHT22;7731;50.720;6.912;2022-10-17T10:22:03;25.30;16.30
15257;DHT22;7731;50.720;6.912;2022-10-17T10:24:34;25.40;12.10
15257;DHT22;7731;50.720;6.912;2022-10-17T10:27:05;24.90;28.30
15257;DHT22;7731;50.720;6.912;2022-10-17T10:29:48;24.60;34.20
15257;DHT22;7731;50.720;6.912;2022-10-17T10:32:27;24.50;37.20
15257;DHT22;7731;50.720;6.912;2022-10-17T10:35:06;24.40;35.40
15257;DHT22;7731;50.720;6.912;2022-10-17T10:38:01;24.30;45.50
15257;DHT22;7731;50.720;6.912;2022-10-17T10:40:44;24.20;47.80
15257;DHT22;7731;50.720;6.912;2022-10-17T10:43:23;24.20;53.40
15257;DHT22;7731;50.720;6.912;2022-10-17T10:46:01;24.10;60.10
15257;DHT22;7731;50.720;6.912;2022-10-17T10:48:36;24.20;67.60
15257;DHT22;7731;50.720;6.912;2022-10-17T10:54:20;24.20;64.80
15257;DHT22;7731;50.720;6.912;2022-10-17T10:56:57;24.00;86.60
15257;DHT22;7731;50.720;6.912;2022-10-17T10:59:36;23.90;90.40
15257;DHT22;7731;50.720;6.912;2022-10-17T11:02:17;23.70;95.10
15257;DHT22;7731;50.720;6.912;2022-10-17T11:04:58;23.70;84.90
15257;DHT22;7731;50.720;6.912;2022-10-17T11:07:37;23.60;96.20
15257;DHT22;7731;50.720;6.912;2022-10-17T11:10:22;23.60;87.00
15257;DHT22;7731;50.720;6.912;2022-10-17T11:13:09;23.50;87.50
15257;DHT22;7731;50.720;6.912;2022-10-17T11:15:50;23.30;94.30
15257;DHT22;7731;50.720;6.912;2022-10-17T11:18:25;23.20;99.90
15257;DHT22;7731;50.720;6.912;2022-10-17T11:21:17;23.00;99.90
15257;DHT22;7731;50.720;6.912;2022-10-17T11:23:59;22.80;99.90
15257;DHT22;7731;50.720;6.912;2022-10-17T11:26:40;22.60;99.90
15257;DHT22;7731;50.720;6.912;2022-10-17T11:29:18;22.60;99.90
15257;DHT22;7731;50.720;6.912;2022-10-17T11:31:51;22.50;99.90
15257;DHT22;7731;50.720;6.912;2022-10-17T11:34:28;22.50;99.90
15257;DHT22;7731;50.720;6.912;2022-10-17T11:37:04;22.50;99.90
15257;DHT22;7731;50.720;6.912;2022-10-17T11:39:48;22.50;99.90
15257;DHT22;7731;50.720;6.912;2022-10-17T11:42:30;22.40;99.90
15257;DHT22;7731;50.720;6.912;2022-10-17T11:45:08;22.30;99.90
15257;DHT22;7731;50.720;6.912;2022-10-17T11:47:47;22.20;99.90
15257;DHT22;7731;50.720;6.912;2022-10-17T11:50:30;22.10;99.90
15257;DHT22;7731;50.720;6.912;2022-10-17T11:53:24;22.10;99.90
15257;DHT22;7731;50.720;6.912;2022-10-17T11:56:02;22.10;99.90
15257;DHT22;7731;50.720;6.912;2022-10-17T11:58:42;22.00;99.90
15257;DHT22;7731;50.720;6.912;2022-10-17T12:01:35;22.00;99.90
15257;DHT22;7731;50.720;6.912;2022-10-17T12:04:21;21.90;99.90
15257;DHT22;7731;50.720;6.912;2022-10-17T12:07:21;21.80;99.90
15257;DHT22;7731;50.720;6.912;2022-10-17T12:10:20;21.70;99.90
15257;DHT22;7731;50.720;6.912;2022-10-17T12:16:53;21.50;99.90
15257;DHT22;7731;50.720;6.912;2022-10-17T12:19:28;21.50;99.90
15257;DHT22;7731;50.720;6.912;2022-10-17T12:22:21;21.40;99.90
15257;DHT22;7731;50.720;6.912;2022-10-17T12:25:00;21.40;99.90
15257;DHT22;7731;50.720;6.912;2022-10-17T12:27:39;21.40;99.90
15257;DHT22;7731;50.720;6.912;2022-10-17T12:30:23;21.40;99.90
15257;DHT22;7731;50.720;6.912;2022-10-17T12:35:50;21.40;99.90
15257;DHT22;7731;50.720;6.912;2022-10-17T12:38:45;21.50;99.90
15257;DHT22;7731;50.720;6.912;2022-10-17T12:41:16;21.50;99.90
15257;DHT22;7731;50.720;6.912;2022-10-17T12:44:34;21.50;99.90
15257;DHT22;7731;50.720;6.912;2022-10-17T12:47:34;21.40;99.90
15257;DHT22;7731;50.720;6.912;2022-10-17T12:53:58;21.40;99.90
15257;DHT22;7731;50.720;6.912;2022-10-17T12:56:34;21.40;99.90
15257;DHT22;7731;50.720;6.912;2022-10-17T12:59:10;21.40;99.90
15257;DHT22;7731;50.720;6.912;2022-10-17T13:01:46;21.40;99.90
15257;DHT22;7731;50.720;6.912;2022-10-17T13:04:24;21.50;99.90
15257;DHT22;7731;50.720;6.912;2022-10-17T13:06:59;21.50;99.90
15257;DHT22;7731;50.720;6.912;2022-10-17T13:09:32;21.50;99.90
15257;DHT22;7731;50.720;6.912;2022-10-17T13:12:14;21.50;99.90
15257;DHT22;7731;50.720;6.912;2022-10-17T13:14:53;21.30;99.90
15257;DHT22;7731;50.720;6.912;2022-10-17T13:17:25;21.30;99.90
15257;DHT22;7731;50.720;6.912;2022-10-17T13:19:59;21.20;99.90
15257;DHT22;7731;50.720;6.912;2022-10-17T13:22:34;21.10;99.90
15257;DHT22;7731;50.720;6.912;2022-10-17T13:25:13;21.00;99.90
15257;DHT22;7731;50.720;6.912;2022-10-17T13:27:44;20.90;99.90
15257;DHT22;7731;50.720;6.912;2022-10-17T13:30:25;20.90;99.90
15257;DHT22;7731;50.720;6.912;2022-10-17T13:32:58;21.00;99.90
15257;DHT22;7731;50.720;6.912;2022-10-17T13:35:33;21.00;99.90
15257;DHT22;7731;50.720;6.912;2022-10-17T13:38:27;21.00;99.90
15257;DHT22;7731;50.720;6.912;2022-10-17T13:41:10;21.00;99.90
15257;DHT22;7731;50.720;6.912;2022-10-17T13:44:03;21.00;99.90
15257;DHT22;7731;50.720;6.912;2022-10-17T13:46:45;21.20;99.90
15257;DHT22;7731;50.720;6.912;2022-10-17T13:49:20;21.20;99.90
15257;DHT22;7731;50.720;6.912;2022-10-17T13:52:00;21.30;99.90
15257;DHT22;7731;50.720;6.912;2022-10-17T13:54:35;21.40;99.90
15257;DHT22;7731;50.720;6.912;2022-10-17T13:57:18;21.50;99.90
15257;DHT22;7731;50.720;6.912;2022-10-17T13:59:50;21.50;99.90
15257;DHT22;7731;50.720;6.912;2022-10-17T14:02:25;21.50;99.90
15257;DHT22;7731;50.720;6.912;2022-10-17T14:05:02;21.60;99.90
15257;DHT22;7731;50.720;6.912;2022-10-17T14:07:50;21.80;99.90
15257;DHT22;7731;50.720;6.912;2022-10-17T14:10:43;21.90;99.90
15257;DHT22;7731;50.720;6.912;2022-10-17T14:13:19;21.90;99.90
15257;DHT22;7731;50.720;6.912;2022-10-17T14:15:54;22.00;99.90
15257;DHT22;7731;50.720;6.912;2022-10-17T14:18:29;22.00;99.90
15257;DHT22;7731;50.720;6.912;2022-10-17T14:21:14;22.10;99.90
15257;DHT22;7731;50.720;6.912;2022-10-17T14:24:25;22.20;99.90
15257;DHT22;7731;50.720;6.912;2022-10-17T14:26:58;22.20;99.90
15257;DHT22;7731;50.720;6.912;2022-10-17T14:29:30;22.20;99.90
15257;DHT22;7731;50.720;6.912;2022-10-17T14:32:03;22.10;99.90
15257;DHT22;7731;50.720;6.912;2022-10-17T14:34:39;22.10;99.90
15257;DHT22;7731;50.720;6.912;2022-10-17T14:37:18;22.00;99.90
15257;DHT22;7731;50.720;6.912;2022-10-17T14:40:06;22.00;99.90
15257;DHT22;7731;50.720;6.912;2022-10-17T14:42:44;21.90;99.90
15257;DHT22;7731;50.720;6.912;2022-10-17T14:45:22;21.80;99.90
15257;DHT22;7731;50.720;6.912;2022-10-17T14:48:01;21.80;99.90
15257;DHT22;7731;50.720;6.912;2022-10-17T14:50:33;21.70;99.90
15257;DHT22;7731;50.720;6.912;2022-10-17T14:53:19;21.70;99.90
15257;DHT22;7731;50.720;6.912;2022-10-17T14:55:58;21.60;99.90
15257;DHT22;7731;50.720;6.912;2022-10-17T14:58:32;21.60;99.90
15257;DHT22;7731;50.720;6.912;2022-10-17T15:01:05;21.60;99.90
15257;DHT22;7731;50.720;6.912;2022-10-17T15:03:42;21.60;99.90
15257;DHT22;7731;50.720;6.912;2022-10-17T15:06:17;21.50;99.90
15257;DHT22;7731;50.720;6.912;2022-10-17T15:08:49;21.50;99.90
15257;DHT22;7731;50.720;6.912;2022-10-17T15:11:25;21.40;99.90
15257;DHT22;7731;50.720;6.912;2022-10-17T15:13:58;21.40;99.90
15257;DHT22;7731;50.720;6.912;2022-10-17T15:16:31;21.40;99.90
15257;DHT22;7731;50.720;6.912;2022-10-17T15:19:05;21.30;99.90
15257;DHT22;7731;50.720;6.912;2022-10-17T15:21:38;21.20;99.90
15257;DHT22;7731;50.720;6.912;2022-10-17T15:24:13;21.20;99.90
15257;DHT22;7731;50.720;6.912;2022-10-17T15:26:47;21.20;99.90
15257;DHT22;7731;50.720;6.912;2022-10-17T15:29:17;21.10;99.90
15257;DHT22;7731;50.720;6.912;2022-10-17T15:31:50;21.10;99.90
15257;DHT22;7731;50.720;6.912;2022-10-17T15:34:23;21.00;99.90
15257;DHT22;7731;50.720;6.912;2022-10-17T15:36:55;21.00;99.90
15257;DHT22;7731;50.720;6.912;2022-10-17T15:39:25;20.90;99.90
15257;DHT22;7731;50.720;6.912;2022-10-17T15:42:01;20.90;99.90
15257;DHT22;7731;50.720;6.912;2022-10-17T15:44:31;20.80;99.90
15257;DHT22;7731;50.720;6.912;2022-10-17T15:47:23;20.80;99.90
15257;DHT22;7731;50.720;6.912;2022-10-17T15:49:58;20.60;99.90
15257;DHT22;7731;50.720;6.912;2022-10-17T15:52:29;20.60;99.90
15257;DHT22;7731;50.720;6.912;2022-10-17T15:54:59;20.60;99.90
15257;DHT22;7731;50.720;6.912;2022-10-17T15:57:35;20.60;99.90
15257;DHT22;7731;50.720;6.912;2022-10-17T16:00:14;20.50;99.90
15257;DHT22;7731;50.720;6.912;2022-10-17T16:02:49;20.50;99.90
15257;DHT22;7731;50.720;6.912;2022-10-17T16:05:24;20.50;99.90
15257;DHT22;7731;50.720;6.912;2022-10-17T16:07:55;20.40;99.90
15257;DHT22;7731;50.720;6.912;2022-10-17T16:10:25;20.40;99.90
15257;DHT22;7731;50.720;6.912;2022-10-17T16:13:00;20.30;99.90
15257;DHT22;7731;50.720;6.912;2022-10-17T16:15:32;20.20;99.90
15257;DHT22;7731;50.720;6.912;2022-10-17T16:18:05;20.10;99.90
15257;DHT22;7731;50.720;6.912;2022-10-17T16:20:39;20.10;99.90
15257;DHT22;7731;50.720;6.912;2022-10-17T16:23:11;20.10;99.90
15257;DHT22;7731;50.720;6.912;2022-10-17T16:25:49;20.10;99.90
15257;DHT22;7731;50.720;6.912;2022-10-17T16:28:24;20.10;99.90
15257;DHT22;7731;50.720;6.912;2022-10-17T16:30:54;20.00;99.90
15257;DHT22;7731;50.720;6.912;2022-10-17T16:33:24;19.90;99.90
15257;DHT22;7731;50.720;6.912;2022-10-17T16:35:54;19.90;99.90
15257;DHT22;7731;50.720;6.912;2022-10-17T16:38:24;19.80;99.90
15257;DHT22;7731;50.720;6.912;2022-10-17T16:40:54;19.70;99.90
15257;DHT22;7731;50.720;6.912;2022-10-17T16:43:27;19.60;99.90
15257;DHT22;7731;50.720;6.912;2022-10-17T16:46:11;19.50;99.90
15257;DHT22;7731;50.720;6.912;2022-10-17T16:48:44;19.50;99.90
15257;DHT22;7731;50.720;6.912;2022-10-17T16:51:19;19.40;99.90
15257;DHT22;7731;50.720;6.912;2022-10-17T16:53:50;19.30;99.90
15257;DHT22;7731;50.720;6.912;2022-10-17T16:56:23;19.20;99.90
15257;DHT22;7731;50.720;6.912;2022-10-17T16:59:01;19.20;99.90
15257;DHT22;7731;50.720;6.912;2022-10-17T17:01:31;19.20;99.90
15257;DHT22;7731;50.720;6.912;2022-10-17T17:04:01;19.50;99.90
15257;DHT22;7731;50.720;6.912;2022-10-17T17:06:38;19.60;99.90